createdAt,value
2018-09-14T00:00:35.408Z,0.70
2018-09-14T00:01:38.094Z,0.57
2018-09-14T00:02:40.829Z,0.50
2018-09-14T00:03:43.531Z,0.83
2018-09-14T00:04:46.235Z,0.57
2018-09-14T00:05:49.062Z,0.50
2018-09-14T00:06:51.774Z,0.50
2018-09-14T00:07:54.497Z,0.90
2018-09-14T00:08:57.212Z,0.57
2018-09-14T00:09:59.950Z,0.60
2018-09-14T00:11:02.824Z,0.50
2018-09-14T00:12:05.507Z,0.50
2018-09-14T00:13:08.223Z,0.60
2018-09-14T00:14:11.084Z,0.40
2018-09-14T00:15:13.798Z,0.67
2018-09-14T00:16:16.602Z,0.30
2018-09-14T00:17:19.321Z,0.67
2018-09-14T00:18:22.054Z,0.50
2018-09-14T00:19:24.775Z,0.60
2018-09-14T00:20:27.536Z,0.70
2018-09-14T00:21:30.390Z,0.60
2018-09-14T00:22:33.098Z,0.60
2018-09-14T00:23:35.827Z,0.60
2018-09-14T00:24:38.548Z,0.70
2018-09-14T00:25:41.307Z,1.00
2018-09-14T00:26:44.179Z,0.60
2018-09-14T00:27:46.904Z,0.63
2018-09-14T00:28:49.567Z,0.43
2018-09-14T00:29:52.266Z,0.50
2018-09-14T00:30:55.010Z,0.63
2018-09-14T00:31:57.849Z,0.50
2018-09-14T00:33:00.562Z,0.50
2018-09-14T00:34:03.288Z,0.80
2018-09-14T00:35:06.181Z,0.50
2018-09-14T00:36:08.921Z,0.73
2018-09-14T00:37:12.145Z,0.67
2018-09-14T00:38:14.874Z,0.37
2018-09-14T00:39:17.609Z,0.60
2018-09-14T00:40:20.309Z,0.50
2018-09-14T00:41:23.030Z,0.60
2018-09-14T00:42:25.929Z,0.47
2018-09-14T00:43:28.641Z,0.73
2018-09-14T00:44:31.379Z,0.67
2018-09-14T00:45:34.092Z,0.40
2018-09-14T00:46:36.817Z,0.60
2018-09-14T00:47:39.634Z,0.77
2018-09-14T00:48:42.338Z,0.70
2018-09-14T00:49:45.074Z,0.33
2018-09-14T00:50:47.779Z,0.50
2018-09-14T00:51:50.532Z,0.77
2018-09-14T00:52:53.386Z,0.60
2018-09-14T00:53:56.385Z,0.90
2018-09-14T00:54:59.096Z,0.87
2018-09-14T00:56:09.420Z,0.47
2018-09-14T00:57:12.130Z,0.50
2018-09-14T00:58:14.984Z,0.90
2018-09-14T00:59:17.685Z,0.70
2018-09-14T01:00:20.400Z,0.67
2018-09-14T01:01:23.155Z,0.57
2018-09-14T01:02:26.069Z,0.70
2018-09-14T01:03:28.893Z,0.73
2018-09-14T01:04:31.596Z,0.67
2018-09-14T01:05:34.313Z,0.80
2018-09-14T01:06:37.049Z,0.80
2018-09-14T01:07:39.741Z,0.57
2018-09-14T01:08:42.550Z,0.57
2018-09-14T01:09:45.313Z,1.07
2018-09-14T01:10:48.054Z,0.40
2018-09-14T01:11:50.783Z,0.70
2018-09-14T01:12:53.477Z,1.20
2018-09-14T01:13:56.315Z,0.80
2018-09-14T01:14:59.005Z,0.87
2018-09-14T01:16:01.737Z,0.50
2018-09-14T01:17:04.575Z,0.47
2018-09-14T01:18:07.285Z,0.60
2018-09-14T01:19:10.229Z,0.50
2018-09-14T01:20:12.968Z,0.67
2018-09-14T01:21:15.697Z,0.60
2018-09-14T01:22:18.423Z,0.67
2018-09-14T01:23:21.300Z,0.60
2018-09-14T01:24:24.118Z,0.57
2018-09-14T01:25:26.850Z,0.53
2018-09-14T01:26:29.568Z,0.77
2018-09-14T01:27:32.269Z,0.70
2018-09-14T01:28:35.098Z,0.70
2018-09-14T01:29:37.941Z,0.53
2018-09-14T01:30:40.644Z,0.70
2018-09-14T01:31:43.378Z,0.30
2018-09-14T01:32:46.131Z,0.60
2018-09-14T01:33:48.833Z,0.70
2018-09-14T01:34:51.644Z,0.60
2018-09-14T01:35:59.863Z,0.60
2018-09-14T01:37:02.590Z,0.70
2018-09-14T01:38:05.321Z,0.80
2018-09-14T01:39:10.719Z,0.50
2018-09-14T01:40:13.621Z,0.50
2018-09-14T01:41:16.374Z,0.50
2018-09-14T01:42:19.073Z,0.60
2018-09-14T01:43:21.823Z,0.60
2018-09-14T01:44:24.478Z,0.60
2018-09-14T01:45:27.295Z,0.33
2018-09-14T01:46:30.014Z,0.80
2018-09-14T01:47:32.730Z,0.90
2018-09-14T01:48:35.465Z,0.87
2018-09-14T01:49:38.165Z,1.07
2018-09-14T01:50:41.039Z,0.70
2018-09-14T01:51:43.732Z,0.60
2018-09-14T01:52:46.486Z,0.90
2018-09-14T01:53:49.201Z,0.80
2018-09-14T01:54:51.886Z,0.70
2018-09-14T01:55:54.725Z,0.83
2018-09-14T01:56:57.417Z,0.70
2018-09-14T01:58:00.112Z,0.70
2018-09-14T01:59:02.836Z,0.70
2018-09-14T02:00:06.156Z,0.70
2018-09-14T02:01:08.996Z,0.50
2018-09-14T02:02:11.677Z,1.00
2018-09-14T02:03:14.757Z,0.70
2018-09-14T02:04:17.498Z,0.80
2018-09-14T02:05:20.234Z,0.70
2018-09-14T02:06:23.751Z,0.90
2018-09-14T02:07:26.465Z,0.60
2018-09-14T02:08:29.220Z,0.70
2018-09-14T02:09:31.917Z,0.60
2018-09-14T02:10:34.622Z,0.70
2018-09-14T02:11:37.510Z,0.80
2018-09-14T02:12:40.217Z,1.10
2018-09-14T02:13:42.933Z,0.70
2018-09-14T02:14:46.006Z,0.53
2018-09-14T02:15:48.697Z,1.00
2018-09-14T02:16:51.536Z,0.80
2018-09-14T02:17:54.248Z,0.60
2018-09-14T02:18:56.944Z,1.03
2018-09-14T02:19:59.618Z,0.53
2018-09-14T02:21:02.327Z,0.90
2018-09-14T02:22:05.424Z,0.60
2018-09-14T02:23:08.156Z,0.90
2018-09-14T02:24:10.840Z,0.70
2018-09-14T02:25:13.724Z,0.80
2018-09-14T02:26:16.406Z,0.60
2018-09-14T02:27:19.241Z,0.80
2018-09-14T02:28:22.025Z,1.00
2018-09-14T02:29:24.746Z,0.70
2018-09-14T02:30:27.474Z,0.70
2018-09-14T02:31:30.173Z,0.67
2018-09-14T02:32:33.031Z,0.70
2018-09-14T02:33:35.759Z,0.83
2018-09-14T02:34:38.469Z,0.90
2018-09-14T02:35:41.193Z,0.80
2018-09-14T02:36:44.258Z,0.83
2018-09-14T02:37:47.042Z,0.80
2018-09-14T02:38:49.729Z,0.80
2018-09-14T02:39:52.404Z,1.00
2018-09-14T02:40:55.150Z,0.67
2018-09-14T02:41:57.823Z,0.63
2018-09-14T02:43:00.618Z,1.10
2018-09-14T02:44:03.316Z,0.60
2018-09-14T02:45:06.079Z,0.70
2018-09-14T02:46:08.757Z,0.40
2018-09-14T02:47:11.423Z,0.90
2018-09-14T02:48:14.297Z,0.80
2018-09-14T02:49:16.971Z,1.10
2018-09-14T02:50:19.653Z,0.80
2018-09-14T02:51:22.341Z,1.20
2018-09-14T02:52:25.021Z,0.60
2018-09-14T02:53:28.052Z,0.80
2018-09-14T02:54:30.815Z,0.70
2018-09-14T02:55:33.551Z,0.80
2018-09-14T02:56:36.248Z,0.87
2018-09-14T02:57:38.920Z,0.70
2018-09-14T02:58:41.892Z,0.80
2018-09-14T02:59:44.659Z,1.00
2018-09-14T03:00:47.347Z,0.83
2018-09-14T03:01:50.020Z,0.77
2018-09-14T03:02:52.674Z,0.60
2018-09-14T03:03:55.746Z,0.77
2018-09-14T03:04:58.401Z,0.90
2018-09-14T03:06:01.105Z,0.90
2018-09-14T03:07:03.795Z,0.87
2018-09-14T03:08:06.518Z,0.83
2018-09-14T03:09:09.898Z,1.00
2018-09-14T03:10:12.589Z,0.93
2018-09-14T03:11:15.262Z,0.80
2018-09-14T03:12:17.937Z,0.70
2018-09-14T03:13:20.619Z,1.00
2018-09-14T03:14:23.572Z,0.90
2018-09-14T03:15:26.296Z,0.97
2018-09-14T03:16:28.958Z,0.70
2018-09-14T03:17:31.649Z,0.70
2018-09-14T03:18:34.325Z,1.00
2018-09-14T03:19:37.382Z,0.60
2018-09-14T03:20:40.048Z,1.13
2018-09-14T03:21:42.720Z,1.00
2018-09-14T03:22:45.380Z,0.80
2018-09-14T03:23:48.047Z,0.60
2018-09-14T03:24:51.063Z,1.10
2018-09-14T03:25:53.742Z,0.83
2018-09-14T03:26:56.439Z,1.00
2018-09-14T03:27:59.109Z,0.80
2018-09-14T03:29:01.802Z,0.87
2018-09-14T03:30:04.869Z,0.80
2018-09-14T03:31:07.547Z,1.37
2018-09-14T03:32:10.261Z,0.77
2018-09-14T03:33:12.925Z,1.03
2018-09-14T03:34:15.616Z,1.07
2018-09-14T03:35:18.577Z,1.60
2018-09-14T03:36:21.253Z,0.70
2018-09-14T03:37:23.922Z,1.27
2018-09-14T03:38:26.587Z,0.70
2018-09-14T03:39:29.258Z,1.10
2018-09-14T03:40:32.319Z,0.83
2018-09-14T03:41:35.016Z,0.90
2018-09-14T03:42:37.777Z,1.10
2018-09-14T03:43:40.472Z,0.90
2018-09-14T03:44:43.237Z,1.13
2018-09-14T03:45:46.270Z,1.10
2018-09-14T03:46:48.964Z,1.17
2018-09-14T03:47:51.635Z,1.30
2018-09-14T03:48:54.321Z,1.23
2018-09-14T03:49:56.970Z,1.20
2018-09-14T03:50:59.969Z,1.00
2018-09-14T03:52:02.670Z,1.40
2018-09-14T03:53:05.382Z,0.80
2018-09-14T03:54:08.072Z,0.90
2018-09-14T03:55:10.753Z,0.93
2018-09-14T03:56:13.777Z,0.87
2018-09-14T03:57:16.498Z,1.20
2018-09-14T03:58:19.361Z,0.90
2018-09-14T03:59:22.084Z,1.03
2018-09-14T04:00:24.814Z,1.07
2018-09-14T04:01:27.776Z,1.10
2018-09-14T04:02:30.446Z,1.23
2018-09-14T04:03:33.120Z,1.40
2018-09-14T04:04:36.328Z,0.90
2018-09-14T04:05:39.005Z,0.83
2018-09-14T04:06:42.111Z,0.93
2018-09-14T04:07:44.852Z,1.70
2018-09-14T04:08:47.568Z,1.50
2018-09-14T04:09:50.238Z,1.43
2018-09-14T04:10:52.894Z,1.10
2018-09-14T04:11:55.882Z,1.20
2018-09-14T04:12:58.550Z,1.00
2018-09-14T04:14:01.193Z,0.97
2018-09-14T04:15:03.958Z,1.10
2018-09-14T04:16:06.656Z,0.80
2018-09-14T04:17:09.717Z,0.70
2018-09-14T04:18:12.380Z,0.80
2018-09-14T04:19:15.042Z,0.90
2018-09-14T04:20:17.702Z,1.10
2018-09-14T04:21:20.352Z,0.70
2018-09-14T04:22:23.361Z,1.40
2018-09-14T04:23:26.066Z,1.10
2018-09-14T04:24:28.735Z,0.90
2018-09-14T04:25:31.403Z,1.13
2018-09-14T04:26:34.061Z,1.13
2018-09-14T04:27:37.018Z,1.40
2018-09-14T04:28:39.749Z,0.90
2018-09-14T04:29:42.407Z,1.20
2018-09-14T04:30:45.130Z,1.20
2018-09-14T04:31:47.824Z,0.90
2018-09-14T04:32:50.825Z,0.80
2018-09-14T04:33:53.521Z,1.10
2018-09-14T04:34:56.214Z,0.80
2018-09-14T04:35:58.912Z,1.30
2018-09-14T04:37:01.567Z,1.10
2018-09-14T04:38:04.371Z,1.10
2018-09-14T04:39:08.607Z,0.70
2018-09-14T04:40:11.294Z,1.37
2018-09-14T04:41:13.976Z,1.20
2018-09-14T04:42:16.642Z,1.50
2018-09-14T04:43:19.417Z,1.53
2018-09-14T04:44:22.107Z,1.50
2018-09-14T04:45:24.791Z,1.20
2018-09-14T04:46:27.469Z,1.37
2018-09-14T04:47:30.140Z,1.30
2018-09-14T04:48:33.131Z,1.00
2018-09-14T04:49:35.757Z,1.13
2018-09-14T04:50:38.445Z,1.40
2018-09-14T04:51:41.106Z,1.13
2018-09-14T04:52:43.775Z,1.20
2018-09-14T04:53:46.576Z,1.27
2018-09-14T04:54:49.249Z,1.13
2018-09-14T04:55:51.944Z,1.10
2018-09-14T04:56:54.617Z,1.23
2018-09-14T04:57:57.344Z,1.30
2018-09-14T04:59:00.099Z,1.20
2018-09-14T05:00:03.105Z,1.97
2018-09-14T05:01:05.867Z,1.10
2018-09-14T05:02:08.529Z,1.40
2018-09-14T05:03:11.201Z,1.33
2018-09-14T05:04:13.967Z,1.10
2018-09-14T05:05:16.655Z,1.47
2018-09-14T05:06:19.336Z,1.30
2018-09-14T05:07:21.995Z,1.70
2018-09-14T05:08:24.646Z,1.23
2018-09-14T05:09:27.486Z,1.20
2018-09-14T05:10:30.155Z,1.10
2018-09-14T05:11:32.884Z,1.40
2018-09-14T05:12:35.561Z,1.27
2018-09-14T05:13:38.303Z,1.50
2018-09-14T05:14:41.080Z,1.30
2018-09-14T05:15:43.746Z,1.43
2018-09-14T05:16:46.411Z,1.10
2018-09-14T05:17:49.071Z,1.40
2018-09-14T05:18:51.812Z,1.67
2018-09-14T05:19:54.577Z,1.10
2018-09-14T05:20:57.320Z,1.80
2018-09-14T05:21:59.986Z,1.50
2018-09-14T05:23:02.658Z,1.70
2018-09-14T05:24:05.401Z,1.47
2018-09-14T05:25:08.237Z,1.17
2018-09-14T05:26:10.901Z,1.33
2018-09-14T05:27:13.583Z,1.23
2018-09-14T05:28:16.270Z,2.17
2018-09-14T05:29:18.992Z,1.33
2018-09-14T05:30:21.785Z,1.83
2018-09-14T05:31:24.970Z,1.80
2018-09-14T05:32:27.619Z,1.57
2018-09-14T05:33:30.288Z,1.50
2018-09-14T05:34:33.182Z,1.40
2018-09-14T05:35:36.247Z,1.50
2018-09-14T05:36:38.914Z,1.50
2018-09-14T05:37:41.589Z,1.47
2018-09-14T05:38:44.254Z,1.33
2018-09-14T05:39:46.922Z,1.90
2018-09-14T05:40:49.705Z,2.87
2018-09-14T05:41:52.349Z,2.10
2018-09-14T05:42:54.999Z,1.50
2018-09-14T05:43:57.648Z,1.50
2018-09-14T05:45:00.320Z,1.60
2018-09-14T05:46:03.088Z,1.97
2018-09-14T05:47:06.022Z,1.67
2018-09-14T05:48:08.691Z,1.73
2018-09-14T05:49:11.358Z,2.53
2018-09-14T05:50:14.038Z,1.60
2018-09-14T05:51:16.836Z,1.13
2018-09-14T05:52:19.661Z,1.73
2018-09-14T05:53:22.356Z,1.43
2018-09-14T05:54:25.108Z,1.70
2018-09-14T05:55:27.888Z,1.40
2018-09-14T05:56:30.725Z,1.90
2018-09-14T05:57:33.495Z,1.57
2018-09-14T05:58:36.205Z,1.37
2018-09-14T05:59:38.912Z,1.97
2018-09-14T06:00:41.636Z,2.07
2018-09-14T06:01:44.501Z,1.10
2018-09-14T06:02:47.205Z,1.50
2018-09-14T06:03:49.916Z,1.63
2018-09-14T06:04:52.883Z,1.50
2018-09-14T06:05:55.623Z,1.40
2018-09-14T06:06:58.459Z,1.40
2018-09-14T06:08:01.164Z,1.53
2018-09-14T06:09:06.526Z,1.27
2018-09-14T06:10:09.245Z,1.77
2018-09-14T06:11:11.957Z,1.70
2018-09-14T06:12:14.790Z,1.60
2018-09-14T06:13:17.486Z,1.73
2018-09-14T06:14:20.208Z,1.23
2018-09-14T06:15:22.945Z,1.37
2018-09-14T06:16:25.650Z,1.20
2018-09-14T06:17:28.473Z,1.20
2018-09-14T06:18:31.161Z,0.97
2018-09-14T06:19:33.819Z,1.10
2018-09-14T06:20:36.533Z,1.33
2018-09-14T06:21:39.205Z,1.40
2018-09-14T06:22:42.215Z,1.40
2018-09-14T06:23:44.725Z,1.43
2018-09-14T06:24:47.396Z,1.33
2018-09-14T06:25:50.079Z,1.43
2018-09-14T06:26:52.750Z,1.00
2018-09-14T06:27:55.548Z,1.83
2018-09-14T06:28:58.207Z,1.70
2018-09-14T06:30:00.861Z,1.50
2018-09-14T06:31:03.555Z,1.20
2018-09-14T06:32:06.283Z,1.10
2018-09-14T06:33:09.266Z,1.77
2018-09-14T06:34:11.939Z,1.77
2018-09-14T06:35:14.634Z,1.60
2018-09-14T06:36:17.313Z,1.50
2018-09-14T06:37:19.999Z,1.80
2018-09-14T06:38:22.831Z,1.00
2018-09-14T06:39:25.531Z,1.53
2018-09-14T06:40:28.229Z,1.53
2018-09-14T06:41:30.913Z,1.53
2018-09-14T06:42:33.603Z,1.40
2018-09-14T06:43:36.432Z,1.23
2018-09-14T06:44:39.121Z,1.47
2018-09-14T06:45:41.790Z,1.10
2018-09-14T06:46:44.481Z,1.83
2018-09-14T06:47:47.169Z,1.67
2018-09-14T06:48:49.975Z,1.37
2018-09-14T06:49:52.748Z,1.63
2018-09-14T06:50:55.449Z,1.33
2018-09-14T06:51:58.212Z,1.50
2018-09-14T06:53:00.970Z,1.33
2018-09-14T06:54:03.970Z,1.17
2018-09-14T06:55:06.725Z,1.30
2018-09-14T06:56:09.397Z,1.80
2018-09-14T06:57:12.115Z,1.17
2018-09-14T06:58:14.796Z,1.60
2018-09-14T06:59:17.611Z,1.97
2018-09-14T07:00:20.491Z,1.73
2018-09-14T07:01:23.013Z,1.70
2018-09-14T07:02:25.698Z,1.20
2018-09-14T07:03:28.396Z,1.40
2018-09-14T07:04:31.346Z,1.30
2018-09-14T07:05:34.036Z,1.20
2018-09-14T07:06:36.704Z,1.00
2018-09-14T07:07:39.407Z,1.27
2018-09-14T07:08:42.071Z,1.63
2018-09-14T07:09:44.867Z,1.07
2018-09-14T07:10:47.679Z,1.37
2018-09-14T07:11:50.394Z,1.30
2018-09-14T07:12:53.065Z,1.10
2018-09-14T07:13:55.736Z,1.37
2018-09-14T07:14:58.561Z,1.27
2018-09-14T07:16:01.282Z,1.20
2018-09-14T07:17:03.954Z,1.43
2018-09-14T07:18:06.642Z,1.30
2018-09-14T07:19:09.330Z,0.90
2018-09-14T07:20:12.125Z,0.73
2018-09-14T07:21:14.807Z,1.00
2018-09-14T07:22:17.493Z,1.00
2018-09-14T07:23:20.482Z,1.23
2018-09-14T07:24:23.850Z,1.20
2018-09-14T07:25:26.665Z,1.10
2018-09-14T07:26:29.334Z,0.87
2018-09-14T07:27:32.023Z,1.20
2018-09-14T07:28:34.796Z,1.20
2018-09-14T07:29:37.472Z,1.33
2018-09-14T07:30:40.295Z,1.00
2018-09-14T07:31:43.137Z,1.00
2018-09-14T07:32:45.713Z,1.43
2018-09-14T07:33:48.822Z,1.73
2018-09-14T07:34:51.507Z,1.10
2018-09-14T07:35:54.354Z,1.10
2018-09-14T07:36:57.103Z,1.50
2018-09-14T07:37:59.770Z,1.33
2018-09-14T07:39:02.622Z,1.17
2018-09-14T07:40:05.322Z,1.40
2018-09-14T07:41:08.473Z,1.00
2018-09-14T07:42:11.130Z,1.40
2018-09-14T07:43:13.824Z,1.50
2018-09-14T07:44:16.541Z,1.20
2018-09-14T07:45:19.223Z,0.87
2018-09-14T07:46:22.301Z,0.87
2018-09-14T07:47:24.981Z,1.27
2018-09-14T07:48:27.660Z,1.03
2018-09-14T07:49:30.364Z,1.07
2018-09-14T07:50:33.079Z,0.93
2018-09-14T07:51:36.018Z,1.33
2018-09-14T07:52:38.711Z,1.10
2018-09-14T07:53:41.374Z,1.40
2018-09-14T07:54:44.095Z,1.07
2018-09-14T07:55:46.751Z,1.00
2018-09-14T07:56:49.784Z,1.30
2018-09-14T07:57:52.441Z,0.93
2018-09-14T07:58:55.628Z,1.40
2018-09-14T07:59:58.317Z,1.43
2018-09-14T08:01:01.114Z,1.20
2018-09-14T08:02:04.148Z,1.00
2018-09-14T08:03:06.857Z,1.37
2018-09-14T08:04:09.554Z,1.20
2018-09-14T08:05:12.234Z,1.00
2018-09-14T08:06:15.157Z,1.27
2018-09-14T08:07:18.166Z,1.20
2018-09-14T08:08:20.839Z,1.00
2018-09-14T08:09:23.513Z,1.10
2018-09-14T08:10:26.221Z,1.10
2018-09-14T08:11:28.901Z,1.33
2018-09-14T08:12:31.980Z,1.20
2018-09-14T08:13:34.711Z,1.30
2018-09-14T08:14:37.389Z,1.30
2018-09-14T08:15:40.052Z,1.40
2018-09-14T08:16:42.733Z,0.93
2018-09-14T08:17:45.794Z,1.00
2018-09-14T08:18:48.546Z,1.10
2018-09-14T08:19:51.217Z,0.90
2018-09-14T08:20:53.903Z,1.43
2018-09-14T08:21:56.650Z,1.23
2018-09-14T08:22:59.619Z,1.27
2018-09-14T08:24:02.307Z,1.30
2018-09-14T08:25:04.970Z,1.17
2018-09-14T08:26:07.634Z,1.07
2018-09-14T08:27:10.376Z,1.20
2018-09-14T08:28:13.303Z,1.07
2018-09-14T08:29:16.004Z,0.93
2018-09-14T08:30:18.810Z,0.90
2018-09-14T08:31:21.565Z,1.27
2018-09-14T08:32:24.266Z,1.10
2018-09-14T08:33:27.226Z,1.07
2018-09-14T08:34:29.897Z,0.93
2018-09-14T08:35:32.552Z,0.83
2018-09-14T08:36:35.276Z,0.80
2018-09-14T08:37:37.994Z,1.23
2018-09-14T08:38:41.074Z,1.90
2018-09-14T08:39:43.765Z,0.80
2018-09-14T08:40:46.457Z,1.20
2018-09-14T08:41:49.159Z,1.00
2018-09-14T08:42:51.808Z,1.00
2018-09-14T08:43:54.786Z,1.00
2018-09-14T08:44:57.555Z,1.23
2018-09-14T08:46:00.243Z,0.87
2018-09-14T08:47:02.934Z,0.97
2018-09-14T08:48:05.787Z,0.73
2018-09-14T08:49:08.701Z,0.80
2018-09-14T08:50:11.374Z,1.00
2018-09-14T08:51:14.062Z,0.90
2018-09-14T08:52:16.737Z,0.70
2018-09-14T08:53:19.538Z,1.33
2018-09-14T08:54:22.610Z,1.00
2018-09-14T08:55:25.304Z,0.90
2018-09-14T08:56:27.978Z,0.77
2018-09-14T08:57:30.641Z,1.00
2018-09-14T08:58:33.325Z,1.00
2018-09-14T08:59:36.466Z,1.07
2018-09-14T09:00:39.297Z,1.07
2018-09-14T09:01:41.980Z,1.07
2018-09-14T09:02:44.728Z,0.63
2018-09-14T09:03:47.476Z,0.70
2018-09-14T09:04:50.519Z,1.10
2018-09-14T09:05:53.178Z,0.80
2018-09-14T09:06:55.842Z,0.93
2018-09-14T09:07:58.732Z,0.90
2018-09-14T09:09:01.506Z,0.83
2018-09-14T09:10:04.566Z,0.67
2018-09-14T09:11:07.210Z,0.90
2018-09-14T09:12:09.919Z,0.77
2018-09-14T09:13:12.602Z,1.00
2018-09-14T09:14:15.291Z,1.00
2018-09-14T09:15:18.367Z,1.23
2018-09-14T09:16:21.037Z,0.70
2018-09-14T09:17:23.709Z,1.23
2018-09-14T09:18:26.434Z,0.73
2018-09-14T09:19:29.541Z,0.90
2018-09-14T09:20:32.597Z,0.87
2018-09-14T09:21:35.342Z,0.77
2018-09-14T09:22:38.005Z,0.87
2018-09-14T09:23:40.671Z,0.70
2018-09-14T09:24:43.365Z,0.73
2018-09-14T09:25:46.347Z,0.93
2018-09-14T09:26:49.078Z,1.17
2018-09-14T09:27:51.749Z,0.93
2018-09-14T09:28:54.479Z,0.90
2018-09-14T09:29:57.133Z,0.80
2018-09-14T09:31:00.429Z,1.00
2018-09-14T09:32:03.157Z,0.90
2018-09-14T09:33:05.849Z,1.07
2018-09-14T09:34:08.545Z,0.80
2018-09-14T09:35:11.282Z,1.10
2018-09-14T09:36:14.384Z,0.47
2018-09-14T09:37:17.107Z,0.50
2018-09-14T09:38:19.874Z,0.90
2018-09-14T09:39:22.530Z,0.80
2018-09-14T09:40:25.219Z,1.07
2018-09-14T09:41:28.857Z,0.80
2018-09-14T09:42:31.904Z,0.80
2018-09-14T09:43:34.823Z,0.90
2018-09-14T09:44:37.431Z,0.87
2018-09-14T09:45:40.246Z,0.83
2018-09-14T09:46:43.344Z,0.80
2018-09-14T09:47:46.121Z,1.03
2018-09-14T09:48:48.890Z,0.97
2018-09-14T09:49:51.573Z,0.73
2018-09-14T09:50:54.404Z,0.90
2018-09-14T09:51:57.582Z,0.70
2018-09-14T09:53:00.325Z,0.70
2018-09-14T09:54:03.021Z,0.60
2018-09-14T09:55:05.837Z,0.63
2018-09-14T09:56:08.580Z,0.50
2018-09-14T09:57:11.637Z,0.60
2018-09-14T09:58:14.333Z,0.77
2018-09-14T09:59:17.023Z,0.90
2018-09-14T10:00:25.292Z,0.80
2018-09-14T10:01:28.959Z,0.87
2018-09-14T10:02:38.014Z,0.90
2018-09-14T10:04:46.589Z,0.80
2018-09-14T10:05:54.789Z,0.97
2018-09-14T10:06:57.530Z,0.90
2018-09-14T10:08:00.548Z,0.90
2018-09-14T10:09:04.230Z,0.90
2018-09-14T10:10:10.084Z,1.00
2018-09-14T10:11:12.826Z,0.60
2018-09-14T10:12:15.538Z,0.60
2018-09-14T10:13:18.581Z,0.73
2018-09-14T10:14:21.417Z,0.70
2018-09-14T10:15:24.120Z,1.60
2018-09-14T10:16:26.800Z,0.80
2018-09-14T10:17:29.498Z,0.67
2018-09-14T10:18:32.564Z,0.50
2018-09-14T10:19:35.639Z,0.90
2018-09-14T10:20:38.365Z,1.00
2018-09-14T10:21:41.222Z,0.70
2018-09-14T10:22:43.912Z,0.67
2018-09-14T10:23:47.009Z,0.70
2018-09-14T10:24:49.746Z,1.03
2018-09-14T10:25:52.438Z,0.80
2018-09-14T10:26:55.334Z,0.73
2018-09-14T10:27:58.016Z,0.70
2018-09-14T10:29:01.125Z,0.70
2018-09-14T10:30:03.911Z,0.70
2018-09-14T10:31:06.779Z,0.90
2018-09-14T10:32:09.679Z,0.60
2018-09-14T10:33:12.689Z,0.43
2018-09-14T10:34:15.740Z,0.77
2018-09-14T10:35:18.450Z,1.03
2018-09-14T10:36:21.150Z,0.80
2018-09-14T10:37:23.879Z,0.70
2018-09-14T10:38:26.570Z,0.70
2018-09-14T10:39:29.846Z,0.53
2018-09-14T10:40:32.815Z,0.77
2018-09-14T10:41:35.490Z,0.90
2018-09-14T10:42:38.162Z,0.53
2018-09-14T10:43:40.867Z,1.00
2018-09-14T10:44:43.860Z,0.70
2018-09-14T10:45:46.765Z,0.80
2018-09-14T10:46:49.494Z,0.77
2018-09-14T10:47:52.214Z,0.70
2018-09-14T10:48:55.018Z,0.50
2018-09-14T10:49:58.077Z,0.60
2018-09-14T10:51:00.834Z,0.60
2018-09-14T10:52:03.720Z,0.80
2018-09-14T10:53:06.421Z,0.60
2018-09-14T10:54:09.126Z,0.50
2018-09-14T10:55:12.256Z,0.30
2018-09-14T10:56:14.944Z,0.53
2018-09-14T10:57:17.614Z,0.60
2018-09-14T10:58:20.304Z,0.50
2018-09-14T10:59:23.021Z,0.83
2018-09-14T11:00:26.144Z,0.80
2018-09-14T11:01:28.869Z,0.67
2018-09-14T11:02:31.555Z,0.70
2018-09-14T11:03:34.254Z,0.60
2018-09-14T11:04:36.947Z,0.60
2018-09-14T11:05:40.409Z,0.60
2018-09-14T11:06:43.320Z,0.63
2018-09-14T11:07:45.989Z,0.60
2018-09-14T11:08:48.697Z,0.60
2018-09-14T11:09:51.408Z,0.50
2018-09-14T11:10:54.575Z,0.70
2018-09-14T11:11:57.273Z,0.67
2018-09-14T11:12:59.984Z,0.63
2018-09-14T11:14:02.699Z,0.60
2018-09-14T11:15:05.544Z,0.40
2018-09-14T11:16:08.596Z,0.90
2018-09-14T11:17:11.313Z,0.50
2018-09-14T11:18:13.985Z,0.80
2018-09-14T11:19:16.721Z,0.50
2018-09-14T11:20:19.454Z,0.43
2018-09-14T11:21:22.494Z,0.63
2018-09-14T11:22:25.205Z,0.60
2018-09-14T11:23:27.881Z,0.60
2018-09-14T11:25:39.143Z,0.40
2018-09-14T11:26:42.177Z,0.30
2018-09-14T11:27:44.906Z,0.50
2018-09-14T11:28:47.598Z,0.40
2018-09-14T11:29:50.273Z,0.47
2018-09-14T11:30:52.954Z,0.57
2018-09-14T11:31:56.032Z,0.50
2018-09-14T11:32:58.717Z,0.50
2018-09-14T11:34:01.437Z,0.33
2018-09-14T11:35:04.242Z,0.73
2018-09-14T11:36:07.120Z,0.50
2018-09-14T11:37:10.224Z,0.60
2018-09-14T11:38:13.006Z,0.40
2018-09-14T11:39:15.711Z,0.60
2018-09-14T11:40:18.436Z,0.40
2018-09-14T11:41:21.287Z,1.00
2018-09-14T11:42:24.996Z,0.60
2018-09-14T11:43:27.686Z,0.40
2018-09-14T11:44:30.439Z,0.60
2018-09-14T11:45:33.124Z,0.47
2018-09-14T11:46:35.829Z,0.50
2018-09-14T11:47:38.839Z,0.60
2018-09-14T11:48:41.544Z,0.37
2018-09-14T11:49:44.241Z,0.57
2018-09-14T11:50:46.953Z,0.80
2018-09-14T11:51:49.646Z,0.37
2018-09-14T11:52:52.686Z,0.30
2018-09-14T11:53:55.405Z,0.30
2018-09-14T11:54:58.094Z,0.50
2018-09-14T11:56:00.782Z,0.57
2018-09-14T11:57:03.546Z,0.67
2018-09-14T11:58:06.674Z,0.60
2018-09-14T11:59:09.390Z,0.50
2018-09-14T12:00:12.129Z,0.57
2018-09-14T12:01:14.915Z,0.70
2018-09-14T12:02:17.584Z,0.50
2018-09-14T12:03:20.637Z,0.47
2018-09-14T12:04:23.448Z,0.37
2018-09-14T12:05:26.123Z,0.30
2018-09-14T12:06:29.002Z,0.57
2018-09-14T12:07:36.346Z,0.40
2018-09-14T12:08:39.333Z,0.30
2018-09-14T12:09:42.048Z,0.37
2018-09-14T12:10:44.767Z,0.43
2018-09-14T12:11:47.481Z,0.53
2018-09-14T12:12:50.359Z,0.40
2018-09-14T12:13:53.491Z,0.50
2018-09-14T12:14:56.176Z,0.50
2018-09-14T12:15:58.904Z,0.30
2018-09-14T12:17:01.613Z,0.60
2018-09-14T12:18:04.312Z,0.43
2018-09-14T12:19:07.381Z,0.50
2018-09-14T12:20:10.145Z,0.50
2018-09-14T12:21:12.892Z,0.57
2018-09-14T12:22:15.633Z,0.97
2018-09-14T12:23:18.287Z,0.57
2018-09-14T12:24:21.348Z,0.53
2018-09-14T12:25:24.036Z,0.40
2018-09-14T12:26:26.743Z,0.73
2018-09-14T12:27:30.124Z,0.40
2018-09-14T12:28:32.804Z,0.40
2018-09-14T12:29:35.809Z,0.57
2018-09-14T12:30:38.549Z,0.50
2018-09-14T12:31:41.259Z,0.40
2018-09-14T12:32:43.939Z,0.33
2018-09-14T12:33:46.680Z,2.90
2018-09-14T12:34:49.678Z,0.80
2018-09-14T12:35:52.380Z,0.50
2018-09-14T12:36:55.055Z,0.40
2018-09-14T12:37:57.773Z,0.60
2018-09-14T12:39:00.496Z,0.40
2018-09-14T12:40:03.565Z,0.60
2018-09-14T12:41:06.388Z,0.50
2018-09-14T12:42:09.102Z,0.43
2018-09-14T12:43:11.810Z,0.40
2018-09-14T12:44:14.721Z,0.40
2018-09-14T12:45:17.718Z,0.40
2018-09-14T12:46:20.425Z,0.50
2018-09-14T12:47:23.124Z,0.43
2018-09-14T12:48:25.812Z,0.50
2018-09-14T12:49:28.704Z,0.70
2018-09-14T12:50:31.666Z,0.43
2018-09-14T12:51:34.349Z,0.60
2018-09-14T12:52:37.081Z,0.60
2018-09-14T12:53:39.814Z,0.57
2018-09-14T12:54:42.499Z,0.30
2018-09-14T12:55:45.476Z,0.50
2018-09-14T12:56:48.198Z,0.40
2018-09-14T12:57:50.881Z,0.33
2018-09-14T12:58:53.567Z,0.50
2018-09-14T12:59:56.298Z,0.40
2018-09-14T13:00:59.366Z,0.40
2018-09-14T13:02:02.065Z,0.60
2018-09-14T13:03:04.809Z,0.40
2018-09-14T13:04:07.500Z,0.87
2018-09-14T13:05:10.270Z,0.43
2018-09-14T13:06:13.322Z,0.30
2018-09-14T13:07:16.034Z,0.57
2018-09-14T13:08:18.845Z,0.40
2018-09-14T13:09:21.553Z,0.50
2018-09-14T13:10:24.250Z,0.50
2018-09-14T13:11:27.380Z,0.53
2018-09-14T13:12:30.094Z,0.30
2018-09-14T13:13:32.809Z,0.30
2018-09-14T13:14:35.498Z,0.40
2018-09-14T13:15:38.214Z,0.50
2018-09-14T13:16:41.054Z,0.77
2018-09-14T13:17:43.777Z,0.40
2018-09-14T13:18:46.492Z,0.43
2018-09-14T13:19:49.182Z,0.80
2018-09-14T13:20:51.865Z,0.30
2018-09-14T13:21:54.706Z,0.30
2018-09-14T13:22:57.450Z,0.40
2018-09-14T13:24:00.152Z,0.53
2018-09-14T13:25:02.854Z,0.40
2018-09-14T13:26:05.556Z,0.67
2018-09-14T13:27:08.383Z,0.40
2018-09-14T13:28:11.091Z,0.50
2018-09-14T13:29:13.861Z,0.70
2018-09-14T13:30:16.654Z,0.50
2018-09-14T13:31:19.464Z,0.30
2018-09-14T13:32:22.355Z,0.40
2018-09-14T13:33:25.221Z,0.60
2018-09-14T13:34:27.969Z,0.50
2018-09-14T13:35:30.712Z,0.40
2018-09-14T13:36:33.468Z,0.50
2018-09-14T13:37:36.314Z,0.70
2018-09-14T13:38:39.027Z,0.50
2018-09-14T13:39:41.731Z,0.40
2018-09-14T13:40:44.452Z,0.60
2018-09-14T13:41:47.245Z,0.87
2018-09-14T13:42:50.665Z,0.80
2018-09-14T13:43:53.414Z,0.30
2018-09-14T13:44:56.197Z,0.30
2018-09-14T13:45:59.098Z,0.30
2018-09-14T13:47:01.828Z,0.43
2018-09-14T13:48:04.763Z,0.40
2018-09-14T13:49:07.492Z,0.40
2018-09-14T13:50:10.321Z,0.40
2018-09-14T13:51:13.085Z,0.73
2018-09-14T13:52:15.806Z,0.50
2018-09-14T13:53:18.763Z,0.33
2018-09-14T13:54:21.544Z,0.50
2018-09-14T13:55:24.289Z,0.73
2018-09-14T13:56:27.146Z,0.37
2018-09-14T13:57:29.929Z,0.73
2018-09-14T13:58:32.755Z,0.40